createdAt,value
2017-12-03T00:00:37.657Z,87.17
2017-12-03T00:01:48.194Z,86.89
2017-12-03T00:02:59.192Z,87.46
2017-12-03T00:04:09.535Z,87.74
2017-12-03T00:05:20.051Z,87.65
2017-12-03T00:06:30.326Z,87.74
2017-12-03T00:07:40.599Z,87.74
2017-12-03T00:08:50.997Z,87.65
2017-12-03T00:10:01.303Z,87.55
2017-12-03T00:11:11.909Z,87.93
2017-12-03T00:12:22.217Z,88.02
2017-12-03T00:13:32.176Z,88.02
2017-12-03T00:14:42.682Z,88.02
2017-12-03T00:15:53.011Z,87.55
2017-12-03T00:17:03.330Z,87.74
2017-12-03T00:18:13.751Z,87.84
2017-12-03T00:19:23.433Z,87.93
2017-12-03T00:20:33.345Z,88.49
2017-12-03T00:21:43.923Z,88.21
2017-12-03T00:22:53.910Z,88.31
2017-12-03T00:24:04.181Z,88.21
2017-12-03T00:25:14.468Z,88.21
2017-12-03T00:26:24.854Z,88.12
2017-12-03T00:27:34.824Z,88.31
2017-12-03T00:28:44.636Z,88.31
2017-12-03T00:29:54.674Z,88.31
2017-12-03T00:31:04.803Z,88.31
2017-12-03T00:32:14.424Z,88.21
2017-12-03T00:33:24.420Z,88.31
2017-12-03T00:34:34.742Z,87.93
2017-12-03T00:35:45.032Z,88.21
2017-12-03T00:36:55.376Z,88.4
2017-12-03T00:38:05.672Z,88.21
2017-12-03T00:39:15.979Z,87.93
2017-12-03T00:40:26.312Z,88.12
2017-12-03T00:41:36.673Z,88.12
2017-12-03T00:42:46.962Z,87.84
2017-12-03T00:43:57.289Z,88.02
2017-12-03T00:45:07.627Z,88.68
2017-12-03T00:46:18.033Z,88.31
2017-12-03T00:47:28.519Z,88.21
2017-12-03T00:48:38.869Z,89.06
2017-12-03T00:49:49.160Z,88.97
2017-12-03T00:50:59.539Z,87.84
2017-12-03T00:52:09.439Z,87.84
2017-12-03T00:53:19.748Z,88.31
2017-12-03T00:54:29.726Z,88.78
2017-12-03T00:55:39.988Z,88.59
2017-12-03T00:56:50.055Z,88.36
2017-12-03T00:58:00.060Z,87.88
2017-12-03T00:59:10.351Z,87.93
2017-12-03T01:00:20.660Z,88.07
2017-12-03T01:01:31.027Z,88.4
2017-12-03T01:02:41.318Z,88.59
2017-12-03T01:03:51.624Z,88.78
2017-12-03T01:05:01.900Z,88.97
2017-12-03T01:06:12.463Z,88.97
2017-12-03T01:07:23.068Z,88.97
2017-12-03T01:08:33.463Z,88.59
2017-12-03T01:09:43.714Z,88.45
2017-12-03T01:10:53.758Z,88.55
2017-12-03T01:12:03.933Z,88.83
2017-12-03T01:13:13.932Z,88.93
2017-12-03T01:14:24.217Z,88.93
2017-12-03T01:15:34.296Z,88.83
2017-12-03T01:16:44.643Z,88.74
2017-12-03T01:17:54.351Z,88.93
2017-12-03T01:19:04.673Z,88.74
2017-12-03T01:20:14.707Z,88.93
2017-12-03T01:21:24.601Z,88.93
2017-12-03T01:22:34.877Z,89.02
2017-12-03T01:23:44.901Z,89.02
2017-12-03T01:24:55.207Z,89.31
2017-12-03T01:26:05.382Z,89.12
2017-12-03T01:27:15.418Z,88.83
2017-12-03T01:28:26.075Z,88.83
2017-12-03T01:29:36.361Z,88.83
2017-12-03T01:30:47.123Z,88.93
2017-12-03T01:31:57.383Z,89.12
2017-12-03T01:33:07.432Z,89.25
2017-12-03T01:34:17.818Z,89.16
2017-12-03T01:35:28.089Z,88.97
2017-12-03T01:36:38.173Z,88.78
2017-12-03T01:37:48.472Z,88.78
2017-12-03T01:38:58.759Z,88.97
2017-12-03T01:40:09.061Z,89.25
2017-12-03T01:41:19.067Z,88.87
2017-12-03T01:42:29.355Z,88.59
2017-12-03T01:43:39.491Z,87.74
2017-12-03T01:44:49.772Z,88.21
2017-12-03T01:46:00.075Z,88.21
2017-12-03T01:47:10.410Z,88.4
2017-12-03T01:48:20.910Z,88.87
2017-12-03T01:49:31.197Z,88.4
2017-12-03T01:50:41.100Z,88.12
2017-12-03T01:51:51.420Z,88.02
2017-12-03T01:53:01.943Z,88.4
2017-12-03T01:54:11.987Z,88.31
2017-12-03T01:55:22.244Z,88.21
2017-12-03T01:56:32.749Z,87.84
2017-12-03T01:57:42.757Z,87.84
2017-12-03T01:58:53.091Z,87.74
2017-12-03T02:00:03.238Z,87.46
2017-12-03T02:01:13.361Z,87.65
2017-12-03T02:02:23.632Z,87.55
2017-12-03T02:03:33.944Z,87.74
2017-12-03T02:04:44.271Z,87.55
2017-12-03T02:05:54.307Z,87.65
2017-12-03T02:07:04.481Z,88.02
2017-12-03T02:08:14.814Z,87.46
2017-12-03T02:09:24.838Z,87.27
2017-12-03T02:10:35.183Z,87.27
2017-12-03T02:11:45.653Z,87.08
2017-12-03T02:12:56.157Z,87.17
2017-12-03T02:14:06.409Z,87.17
2017-12-03T02:15:16.681Z,86.98
2017-12-03T02:16:26.994Z,87.17
2017-12-03T02:17:37.403Z,87.36
2017-12-03T02:18:47.235Z,87.36
2017-12-03T02:19:57.523Z,86.98
2017-12-03T02:21:07.805Z,87.27
2017-12-03T02:22:18.071Z,87.17
2017-12-03T02:23:28.726Z,87.27
2017-12-03T02:24:39.002Z,86.85
2017-12-03T02:25:49.082Z,87.27
2017-12-03T02:26:59.379Z,87.08
2017-12-03T02:28:10.608Z,87.27
2017-12-03T02:29:20.852Z,87.27
2017-12-03T02:30:31.193Z,86.89
2017-12-03T02:31:41.300Z,87.36
2017-12-03T02:32:51.662Z,87.17
2017-12-03T02:34:02.049Z,86.6
2017-12-03T02:35:12.340Z,86.79
2017-12-03T02:36:22.457Z,86.6
2017-12-03T02:37:32.769Z,86.79
2017-12-03T02:38:43.847Z,86.7
2017-12-03T02:39:54.207Z,86.7
2017-12-03T02:41:04.223Z,86.98
2017-12-03T02:42:14.233Z,86.32
2017-12-03T02:43:23.847Z,86.7
2017-12-03T02:44:34.199Z,86.6
2017-12-03T02:45:44.896Z,86.98
2017-12-03T02:46:55.190Z,86.6
2017-12-03T02:48:05.067Z,86.41
2017-12-03T02:49:15.334Z,86.22
2017-12-03T02:50:25.673Z,86.13
2017-12-03T02:51:36.157Z,85.9
2017-12-03T02:52:45.911Z,85.9
2017-12-03T02:53:56.379Z,86.47
2017-12-03T02:55:06.660Z,86.18
2017-12-03T02:56:17.192Z,86.75
2017-12-03T02:57:27.196Z,86.75
2017-12-03T02:58:37.467Z,86.66
2017-12-03T02:59:47.872Z,86.75
2017-12-03T03:00:57.852Z,86.85
2017-12-03T03:02:08.252Z,86.66
2017-12-03T03:03:18.560Z,86.56
2017-12-03T03:04:28.880Z,86.66
2017-12-03T11:11:32.266Z,94.74
2017-12-03T11:12:42.328Z,95.4
2017-12-03T11:13:52.712Z,95.03
2017-12-03T11:15:03.537Z,94.65
2017-12-03T11:16:13.654Z,94.84
2017-12-03T11:17:23.706Z,95.03
2017-12-03T11:18:34.287Z,94.65
2017-12-03T11:19:44.577Z,94.84
2017-12-03T11:20:55.092Z,94.74
2017-12-03T11:22:04.576Z,95.03
2017-12-03T11:23:15.010Z,95.21
2017-12-03T11:24:25.554Z,95.21
2017-12-03T11:25:36.203Z,95.21
2017-12-03T11:26:46.499Z,95.03
2017-12-03T11:27:56.805Z,95.59
2017-12-03T11:29:07.206Z,95.59
2017-12-03T11:30:17.594Z,95.5
2017-12-03T11:31:27.960Z,95.31
2017-12-03T11:32:38.777Z,95.97
2017-12-03T11:33:49.088Z,96.16
2017-12-03T11:34:59.760Z,96.26
2017-12-03T11:36:10.840Z,96.64
2017-12-03T11:37:22.183Z,96.45
2017-12-03T11:38:33.339Z,96.16
2017-12-03T11:39:44.459Z,96.16
2017-12-03T11:40:55.408Z,96.26
2017-12-03T11:42:06.448Z,95.97
2017-12-03T11:43:17.315Z,96.16
2017-12-03T11:44:28.688Z,96.35
2017-12-03T11:45:39.277Z,96.35
2017-12-03T11:46:49.347Z,96.35
2017-12-03T11:48:32.060Z,95.97
2017-12-03T11:49:43.323Z,95.88
2017-12-03T11:50:54.829Z,96.07
2017-12-03T11:52:05.496Z,96.07
2017-12-03T11:53:16.274Z,96.45
2017-12-03T11:54:26.919Z,96.16
2017-12-03T11:55:37.402Z,96.26
2017-12-03T11:56:48.012Z,96.07
2017-12-03T11:57:58.680Z,96.07
2017-12-03T11:59:09.009Z,96.16
2017-12-03T12:00:19.433Z,96.45
2017-12-03T12:01:29.501Z,96.26
2017-12-03T12:02:40.148Z,96.16
2017-12-03T12:03:50.460Z,95.97
2017-12-03T12:05:00.277Z,96.07
2017-12-03T12:06:10.624Z,96.26
2017-12-03T12:07:21.110Z,96.45
2017-12-03T12:08:31.686Z,96.64
2017-12-03T12:09:42.032Z,96.35
2017-12-03T12:10:52.356Z,96.54
2017-12-03T12:12:02.664Z,96.35
2017-12-03T12:13:13.034Z,96.07
2017-12-03T12:14:23.451Z,96.26
2017-12-03T12:15:33.806Z,95.97
2017-12-03T12:16:44.093Z,96.45
2017-12-03T12:17:54.476Z,96.35
2017-12-03T12:19:05.062Z,96.83
2017-12-03T12:20:15.830Z,96.26
2017-12-03T12:21:25.866Z,96.16
2017-12-03T12:22:35.942Z,96.54
2017-12-03T12:23:46.275Z,96.16
2017-12-03T12:24:56.580Z,96.45
2017-12-03T12:26:07.147Z,96.83
2017-12-03T12:27:17.684Z,96.83
2017-12-03T12:28:28.176Z,96.73
2017-12-03T12:29:38.860Z,96.92
2017-12-03T12:30:49.196Z,96.83
2017-12-03T12:32:31.491Z,96.92
2017-12-03T12:33:41.861Z,97.11
2017-12-03T12:34:53.271Z,96.64
2017-12-03T12:36:03.592Z,97.02
2017-12-03T12:37:14.090Z,97.2
2017-12-03T12:38:24.341Z,97.3
2017-12-03T12:39:35.380Z,97.39
2017-12-03T12:40:46.546Z,96.92
2017-12-03T12:41:57.410Z,97.11
2017-12-03T12:43:07.812Z,96.73
2017-12-03T12:44:18.034Z,96.92
2017-12-03T12:45:28.137Z,96.83
2017-12-03T12:46:38.558Z,97.11
2017-12-03T12:47:48.864Z,97.11
2017-12-03T12:48:59.252Z,97.68
2017-12-03T12:50:10.654Z,98.25
2017-12-03T12:51:20.972Z,97.58
2017-12-03T12:52:31.306Z,97.87
2017-12-03T12:53:41.352Z,97.58
2017-12-03T12:54:51.688Z,97.39
2017-12-03T12:56:02.194Z,97.39
2017-12-03T12:57:12.554Z,97.39
2017-12-03T12:58:23.002Z,97.49
2017-12-03T12:59:33.379Z,97.58
2017-12-03T13:00:43.681Z,97.49
2017-12-03T13:01:54.081Z,97.3
2017-12-03T13:03:04.506Z,98.06
2017-12-03T13:04:14.839Z,97.87
2017-12-03T13:05:25.217Z,98.06
2017-12-03T13:06:35.203Z,97.68
2017-12-03T13:07:45.155Z,97.68
2017-12-03T13:08:55.306Z,97.77
2017-12-03T13:10:05.958Z,97.77
2017-12-03T13:11:16.267Z,97.77
2017-12-03T13:12:26.737Z,97.77
2017-12-03T13:13:37.169Z,97.68
2017-12-03T13:14:47.634Z,97.49
2017-12-03T13:15:58.007Z,97.58
2017-12-03T13:17:08.316Z,97.77
2017-12-03T13:18:18.198Z,97.58
2017-12-03T13:19:28.237Z,97.58
2017-12-03T13:20:38.281Z,97.58
2017-12-03T13:21:48.371Z,97.49
2017-12-03T13:22:59.382Z,98.53
2017-12-03T13:24:10.041Z,97.87
2017-12-03T13:25:20.414Z,97.58
2017-12-03T13:26:30.769Z,98.44
2017-12-03T13:27:40.824Z,97.58
2017-12-03T13:28:51.342Z,97.68
2017-12-03T13:30:01.662Z,97.58
2017-12-03T13:31:12.002Z,98.06
2017-12-03T13:32:22.295Z,97.58
2017-12-03T13:33:32.306Z,97.39
2017-12-03T13:34:42.645Z,97.77
2017-12-03T13:35:52.843Z,97.77
2017-12-03T13:37:03.293Z,97.49
2017-12-03T13:38:13.639Z,97.77
2017-12-03T13:39:23.979Z,97.77
2017-12-03T13:40:34.319Z,97.96
2017-12-03T13:41:44.392Z,97.49
2017-12-03T13:42:54.780Z,97.77
2017-12-03T13:44:04.880Z,97.77
2017-12-03T13:45:15.262Z,98.34
2017-12-03T13:46:25.622Z,97.77
2017-12-03T13:47:35.596Z,97.77
2017-12-03T13:48:46.080Z,97.58
2017-12-03T13:49:56.398Z,98.15
2017-12-03T13:51:06.479Z,97.49
2017-12-03T13:52:16.842Z,97.68
2017-12-03T13:53:27.380Z,97.68
2017-12-03T13:54:37.691Z,97.58
2017-12-03T13:55:47.761Z,97.68
2017-12-03T13:56:58.028Z,97.77
2017-12-03T13:58:08.389Z,97.87
2017-12-03T13:59:18.968Z,98.25
2017-12-03T14:00:29.083Z,97.87
2017-12-03T14:01:39.525Z,97.68
2017-12-03T14:02:49.618Z,97.77
2017-12-03T14:03:59.927Z,97.96
2017-12-03T14:05:10.276Z,97.68
2017-12-03T14:06:21.272Z,97.58
2017-12-03T14:07:32.102Z,97.68
2017-12-03T14:08:42.476Z,97.68
2017-12-03T14:09:52.772Z,97.58
2017-12-03T14:11:02.858Z,97.96
2017-12-03T14:12:13.253Z,97.58
2017-12-03T14:13:23.890Z,97.77
2017-12-03T14:14:34.187Z,97.77
2017-12-03T14:15:44.496Z,98.44
2017-12-03T14:16:54.895Z,98.15
2017-12-03T14:18:05.236Z,98.44
2017-12-03T14:19:15.270Z,97.87
2017-12-03T14:20:25.609Z,98.34
2017-12-03T14:21:35.753Z,98.53
2017-12-03T14:23:00.574Z,98.44
2017-12-03T14:24:10.620Z,97.49
2017-12-03T14:25:20.589Z,98.25
2017-12-03T14:26:30.920Z,98.25
2017-12-03T14:27:40.888Z,98.15
2017-12-03T14:28:51.032Z,98.34
2017-12-03T14:30:01.136Z,98.06
2017-12-03T14:31:11.543Z,98.25
2017-12-03T14:32:21.917Z,97.77
2017-12-03T14:33:32.024Z,97.77
2017-12-03T14:34:42.328Z,98.44
2017-12-03T14:35:52.607Z,97.49
2017-12-03T14:37:02.894Z,98.34
2017-12-03T14:38:13.447Z,97.96
2017-12-03T14:39:23.802Z,98.34
2017-12-03T14:40:34.139Z,98.34
2017-12-03T14:41:44.564Z,98.25
2017-12-03T14:42:54.967Z,98.25
2017-12-03T14:44:05.301Z,98.44
2017-12-03T14:45:15.633Z,97.68
2017-12-03T14:46:26.006Z,97.39
2017-12-03T14:47:36.377Z,97.77
2017-12-03T14:48:46.700Z,98.34
2017-12-03T14:49:56.673Z,98.15
2017-12-03T14:51:07.228Z,98.34
2017-12-03T14:52:17.229Z,98.15
2017-12-03T14:53:27.876Z,98.34
2017-12-03T14:54:37.953Z,98.25
2017-12-03T14:55:48.150Z,98.25
2017-12-03T14:56:58.552Z,98.06
2017-12-03T14:58:08.967Z,98.44
2017-12-03T14:59:19.401Z,98.44
2017-12-03T15:00:29.520Z,97.87
2017-12-03T15:01:39.664Z,98.25
2017-12-03T15:02:50.172Z,98.44
2017-12-03T15:04:00.506Z,98.25
2017-12-03T15:05:10.910Z,97.96
2017-12-03T15:06:21.299Z,98.15
2017-12-03T15:07:32.818Z,97.96
2017-12-03T15:08:43.369Z,98.34
2017-12-03T15:09:53.963Z,98.25
2017-12-03T15:11:04.313Z,97.96
2017-12-03T15:12:14.724Z,97.96
2017-12-03T15:13:25.111Z,97.96
2017-12-03T15:14:35.403Z,97.96
2017-12-03T15:15:45.483Z,98.25
2017-12-03T15:16:55.797Z,98.15
2017-12-03T15:18:06.357Z,97.96
2017-12-03T15:19:16.602Z,98.15
2017-12-03T15:20:26.683Z,98.44
2017-12-03T15:21:37.232Z,97.68
2017-12-03T15:22:47.574Z,98.34
2017-12-03T15:23:57.905Z,98.34
2017-12-03T15:25:08.234Z,97.68
2017-12-03T15:26:18.544Z,98.44
2017-12-03T15:27:28.549Z,98.15
2017-12-03T15:28:38.652Z,98.44
2017-12-03T15:29:49.045Z,97.68
2017-12-03T15:30:59.034Z,98.49
2017-12-03T15:32:09.096Z,97.73
2017-12-03T15:33:19.399Z,97.82
2017-12-03T15:34:29.324Z,97.63
2017-12-03T15:35:39.416Z,97.82
2017-12-03T15:36:50.105Z,97.82
2017-12-03T15:38:00.509Z,97.63
2017-12-03T15:39:10.848Z,97.63
2017-12-03T15:40:21.188Z,97.82
2017-12-03T15:41:31.503Z,97.82
2017-12-03T15:42:42.912Z,97.44
2017-12-03T15:43:53.247Z,97.54
2017-12-03T15:45:03.606Z,97.54
2017-12-03T15:46:14.662Z,97.63
2017-12-03T15:47:24.562Z,97.54
2017-12-03T15:48:34.968Z,97.54
2017-12-03T15:49:45.297Z,97.73
2017-12-03T15:50:55.420Z,97.44
2017-12-03T15:52:05.749Z,97.44
2017-12-03T15:53:16.691Z,97.44
2017-12-03T15:54:26.739Z,97.35
2017-12-03T15:55:37.095Z,97.63
2017-12-03T15:56:47.538Z,97.35
2017-12-03T15:57:57.499Z,97.25
2017-12-03T15:59:07.865Z,97.63
2017-12-03T16:00:18.222Z,97.25
2017-12-03T16:01:28.542Z,97.63
2017-12-03T16:02:38.870Z,97.25
2017-12-03T16:03:49.195Z,97.63
2017-12-03T16:04:59.656Z,97.16
2017-12-03T16:06:10.059Z,97.16
2017-12-03T16:07:20.975Z,97.16
2017-12-03T16:08:31.141Z,97.63
2017-12-03T16:09:41.675Z,97.25
2017-12-03T16:11:23.947Z,97.16
2017-12-03T16:12:34.032Z,97.44
2017-12-03T16:13:44.348Z,97.54
2017-12-03T16:14:54.692Z,97.25
2017-12-03T16:16:05.027Z,97.35
2017-12-03T16:17:15.236Z,97.63
2017-12-03T16:18:25.561Z,97.73
2017-12-03T16:19:35.915Z,97.82
2017-12-03T16:20:46.168Z,97.16
2017-12-03T16:21:56.516Z,96.97
2017-12-03T16:23:06.620Z,97.02
2017-12-03T16:24:16.934Z,96.88
2017-12-03T16:25:27.247Z,97.11
2017-12-03T16:26:37.929Z,96.83
2017-12-03T16:27:48.268Z,96.73
2017-12-03T16:28:58.760Z,96.64
2017-12-03T16:30:09.019Z,96.92
2017-12-03T16:31:19.487Z,96.92
2017-12-03T16:32:29.810Z,96.83
2017-12-03T16:33:40.279Z,96.92
2017-12-03T16:34:50.832Z,97.02
2017-12-03T16:36:01.145Z,96.92
2017-12-03T16:37:11.360Z,96.92
2017-12-03T16:38:21.467Z,96.92
2017-12-03T16:39:31.817Z,96.26
2017-12-03T16:40:42.259Z,96.17
2017-12-03T16:41:52.650Z,96.17
2017-12-03T16:43:02.969Z,96.07
2017-12-03T16:44:12.807Z,96.64
2017-12-03T16:45:23.336Z,96.64
2017-12-03T16:46:33.707Z,96.45
2017-12-03T16:47:44.355Z,96.17
2017-12-03T16:48:54.724Z,95.98
2017-12-03T16:50:05.173Z,95.98
2017-12-03T16:51:15.675Z,95.98
2017-12-03T16:52:25.928Z,95.98
2017-12-03T16:53:36.396Z,95.98
2017-12-03T16:54:46.510Z,95.98
2017-12-03T16:55:57.445Z,95.98
2017-12-03T16:57:08.250Z,95.98
2017-12-03T16:58:18.779Z,96.45
2017-12-03T16:59:29.314Z,96.45
2017-12-03T17:00:39.985Z,96.26
2017-12-03T17:01:50.209Z,96.45
2017-12-03T17:03:00.555Z,96.07
2017-12-03T17:04:10.669Z,96.36
2017-12-03T17:05:21.042Z,96.36
2017-12-03T17:06:31.049Z,96.64
2017-12-03T17:07:41.384Z,96.45
2017-12-03T17:08:51.756Z,96.36
2017-12-03T17:10:02.097Z,96.64
2017-12-03T17:11:12.364Z,96.17
2017-12-03T17:12:22.802Z,96.26
2017-12-03T17:13:33.162Z,97.11
2017-12-03T17:14:43.489Z,97.02
2017-12-03T17:15:53.905Z,96.92
2017-12-03T17:17:04.371Z,96.92
2017-12-03T17:18:14.520Z,96.92
2017-12-03T17:19:24.967Z,96.92
2017-12-03T17:20:35.486Z,96.73
2017-12-03T17:21:45.929Z,96.55
2017-12-03T17:22:56.270Z,96.73
2017-12-03T17:24:06.676Z,97.02
2017-12-03T17:25:17.306Z,96.92
2017-12-03T17:26:27.433Z,97.78
2017-12-03T17:27:37.922Z,97.21
2017-12-03T17:28:47.954Z,97.11
2017-12-03T17:29:58.111Z,97.21
2017-12-03T17:31:08.279Z,97.4
2017-12-03T17:32:18.206Z,97.4
2017-12-03T17:33:28.657Z,97.68
2017-12-03T17:34:38.883Z,97.97
2017-12-03T17:35:49.277Z,98.44
2017-12-03T17:36:59.660Z,98.16
2017-12-03T17:38:09.937Z,98.25
2017-12-03T17:39:20.415Z,98.16
2017-12-03T17:40:30.824Z,98.06
2017-12-03T17:41:41.298Z,98.16
2017-12-03T17:42:51.468Z,97.97
2017-12-03T17:44:01.665Z,97.87
2017-12-03T17:45:12.281Z,98.25
2017-12-03T17:46:22.504Z,98.25
2017-12-03T17:47:33.111Z,98.35
2017-12-03T17:48:43.243Z,98.35
2017-12-03T17:49:53.861Z,98.16
2017-12-03T17:51:04.337Z,98.16
2017-12-03T17:52:14.504Z,98.06
2017-12-03T17:53:25.120Z,98.16
2017-12-03T17:54:35.643Z,98.44
2017-12-03T17:55:46.053Z,98.44
2017-12-03T17:56:56.447Z,98.35
2017-12-03T17:58:07.035Z,98.16
2017-12-03T17:59:17.570Z,98.16
2017-12-03T18:00:28.108Z,98.54
2017-12-03T18:01:38.809Z,98.54
2017-12-03T18:02:49.295Z,98.25
2017-12-03T18:04:00.075Z,98.54
2017-12-03T18:05:10.445Z,98.54
2017-12-03T18:06:20.911Z,98.25
2017-12-03T18:07:31.311Z,98.06
2017-12-03T18:08:41.245Z,98.25
2017-12-03T18:09:51.324Z,98.06
2017-12-03T18:11:01.736Z,97.87
2017-12-03T18:12:12.279Z,98.35
2017-12-03T18:13:22.680Z,98.25
2017-12-03T18:14:33.101Z,98.16
2017-12-03T18:15:43.273Z,98.16
2017-12-03T18:16:53.831Z,97.78
2017-12-03T18:18:04.044Z,98.16
2017-12-03T18:19:14.640Z,97.87
2017-12-03T18:20:25.058Z,98.16
2017-12-03T18:21:35.190Z,98.06
2017-12-03T18:22:45.251Z,98.06
2017-12-03T18:23:55.369Z,97.87
2017-12-03T18:25:05.456Z,98.16
2017-12-03T18:26:16.001Z,98.06
2017-12-03T18:27:26.519Z,98.06
2017-12-03T18:28:37.129Z,98.16
2017-12-03T18:29:47.684Z,98.16
2017-12-03T18:30:58.351Z,98.06
2017-12-03T18:32:08.812Z,98.25
2017-12-03T18:33:18.961Z,98.16
2017-12-03T18:34:29.330Z,98.25
2017-12-03T18:35:39.931Z,98.16
2017-12-03T18:36:50.102Z,98.54
2017-12-03T18:38:00.742Z,98.44
2017-12-03T18:39:12.260Z,98.35
2017-12-03T18:40:22.743Z,98.44
2017-12-03T18:41:33.318Z,97.87
2017-12-03T18:42:43.859Z,98.44
2017-12-03T18:43:54.365Z,98.16
2017-12-03T18:45:04.865Z,98.16
2017-12-03T18:46:15.250Z,98.44
2017-12-03T18:47:25.748Z,98.06
2017-12-03T18:48:36.910Z,97.87
2017-12-03T18:49:47.392Z,98.44
2017-12-03T18:50:57.898Z,98.44
2017-12-03T18:52:08.037Z,98.25
2017-12-03T18:53:18.534Z,98.25
2017-12-03T18:54:29.006Z,98.54
2017-12-03T18:55:39.432Z,98.54
2017-12-03T18:56:49.902Z,98.25
2017-12-03T18:58:00.335Z,98.25
2017-12-03T18:59:10.863Z,98.25
2017-12-03T19:00:21.542Z,98.54
2017-12-03T19:01:31.387Z,98.54
2017-12-03T19:02:41.441Z,98.25
2017-12-03T19:03:51.858Z,98.44
2017-12-03T19:05:02.324Z,98.25
2017-12-03T19:06:12.968Z,98.44
2017-12-03T19:07:23.523Z,98.16
2017-12-03T19:08:33.992Z,98.16
2017-12-03T19:09:44.257Z,98.44
2017-12-03T19:10:54.428Z,98.25
2017-12-03T19:12:05.005Z,98.16
2017-12-03T19:13:15.498Z,98.06
2017-12-03T19:14:25.962Z,98.54
2017-12-03T19:15:36.483Z,98.16
2017-12-03T19:16:46.883Z,98.25
2017-12-03T19:17:57.125Z,98.16
2017-12-03T19:19:07.406Z,98.35
2017-12-03T19:20:17.931Z,98.25
2017-12-03T19:21:28.383Z,98.16
2017-12-03T19:22:38.938Z,98.35
2017-12-03T19:23:49.227Z,98.25
2017-12-03T19:24:59.640Z,98.82
2017-12-03T19:26:09.886Z,98.06
2017-12-03T19:27:20.347Z,98.16
2017-12-03T19:28:30.814Z,98.35
2017-12-03T19:29:41.274Z,98.25
2017-12-03T19:30:51.703Z,98.25
2017-12-03T19:32:02.158Z,98.16
2017-12-03T19:33:12.587Z,98.44
2017-12-03T19:34:23.030Z,98.16
2017-12-03T19:35:33.597Z,98.16
2017-12-03T19:36:44.059Z,98.54
2017-12-03T19:38:26.293Z,98.54
2017-12-03T19:39:36.471Z,98.06
2017-12-03T19:40:46.968Z,97.87
2017-12-03T19:41:57.749Z,98.16
2017-12-03T19:43:08.246Z,98.25
2017-12-03T19:44:19.078Z,98.06
2017-12-03T19:45:29.596Z,98.06
2017-12-03T19:46:40.059Z,97.87
2017-12-03T19:47:50.594Z,98.25
2017-12-03T19:49:01.078Z,98.16
2017-12-03T19:50:11.814Z,98.25
2017-12-03T19:51:22.428Z,98.16
2017-12-03T19:52:32.697Z,98.06
2017-12-03T19:53:43.207Z,97.87
2017-12-03T19:54:53.646Z,97.87
2017-12-03T19:56:04.085Z,97.87
2017-12-03T19:57:14.649Z,97.68
2017-12-03T19:58:25.356Z,97.68
2017-12-03T19:59:35.234Z,97.78
2017-12-03T20:00:45.327Z,97.59
2017-12-03T20:01:55.500Z,97.78
2017-12-03T20:03:06.029Z,97.68
2017-12-03T20:04:16.583Z,97.59
2017-12-03T20:05:26.746Z,97.49
2017-12-03T20:06:36.814Z,97.4
2017-12-03T20:07:47.648Z,97.87
2017-12-03T20:08:57.852Z,97.68
2017-12-03T20:10:08.280Z,97.68
2017-12-03T20:11:18.373Z,97.73
2017-12-03T20:12:28.883Z,97.54
2017-12-03T20:13:39.434Z,97.21
2017-12-03T20:14:49.831Z,97.59
2017-12-03T20:16:00.441Z,97.68
2017-12-03T20:17:10.836Z,97.59
2017-12-03T20:18:21.347Z,97.35
2017-12-03T20:19:31.887Z,97.68
2017-12-03T20:20:42.388Z,97.07
2017-12-03T20:21:52.506Z,97.21
2017-12-03T20:23:02.901Z,97.26
2017-12-03T20:24:13.589Z,97.45
2017-12-03T20:25:24.039Z,97.26
2017-12-03T20:26:34.424Z,97.54
2017-12-03T20:27:44.864Z,97.4
2017-12-03T20:28:55.407Z,97.35
2017-12-03T20:30:05.928Z,97.54
2017-12-03T20:31:16.643Z,97.35
2017-12-03T20:32:27.304Z,97.54
2017-12-03T20:33:37.725Z,97.45
2017-12-03T20:34:48.173Z,97.21
2017-12-03T20:35:58.290Z,97.21
2017-12-03T20:37:08.034Z,97.11
2017-12-03T20:38:18.324Z,97.35
2017-12-03T20:39:28.751Z,97.26
2017-12-03T20:40:38.896Z,97.45
2017-12-03T20:41:49.311Z,97.26
2017-12-03T20:42:59.852Z,97.35
2017-12-03T20:44:10.038Z,97.73
2017-12-03T20:45:20.147Z,97.45
2017-12-03T20:46:30.580Z,97.45
2017-12-03T20:47:41.039Z,97.07
2017-12-03T20:48:51.192Z,97.07
2017-12-03T20:50:01.642Z,97.54
2017-12-03T20:51:11.986Z,97.83
2017-12-03T20:52:22.376Z,97.45
2017-12-03T20:53:32.811Z,97.64
2017-12-03T20:54:43.202Z,97.64
2017-12-03T20:55:53.730Z,97.64
2017-12-03T20:57:04.258Z,97.54
2017-12-03T20:58:14.811Z,97.64
2017-12-03T20:59:25.193Z,97.64
2017-12-03T21:00:35.616Z,97.64
2017-12-03T21:01:46.668Z,97.54
2017-12-03T21:02:57.141Z,97.64
2017-12-03T21:04:07.675Z,97.45
2017-12-03T21:05:20.078Z,97.16
2017-12-03T21:06:31.912Z,97.54
2017-12-03T21:07:42.444Z,97.54
2017-12-03T21:08:53.249Z,97.54
2017-12-03T21:10:04.664Z,97.54
2017-12-03T21:11:15.635Z,97.92
2017-12-03T21:12:26.539Z,97.92
2017-12-03T21:13:36.514Z,97.64
2017-12-03T21:14:47.426Z,97.73
2017-12-03T21:15:58.448Z,97.54
2017-12-03T21:17:09.306Z,97.54
2017-12-03T21:18:19.960Z,97.83
2017-12-03T21:19:30.745Z,97.26
2017-12-03T21:20:41.297Z,97.35
2017-12-03T21:21:51.831Z,97.64
2017-12-03T21:23:02.048Z,97.54
2017-12-03T21:24:12.873Z,97.73
2017-12-03T21:25:24.109Z,97.64
2017-12-03T21:26:34.495Z,97.54
2017-12-03T21:27:45.507Z,97.64
2017-12-03T21:28:55.881Z,97.64
2017-12-03T21:30:06.452Z,97.54
2017-12-03T21:31:16.570Z,97.92
2017-12-03T21:32:27.189Z,97.26
2017-12-03T21:33:38.394Z,97.26
2017-12-03T21:34:49.147Z,97.83
2017-12-03T21:35:59.683Z,97.83
2017-12-03T21:37:10.523Z,97.26
2017-12-03T21:38:20.686Z,97.45
2017-12-03T21:39:31.536Z,97.45
2017-12-03T21:40:41.901Z,97.35
2017-12-03T21:41:52.318Z,97.45
2017-12-03T21:43:02.682Z,97.16
2017-12-03T21:44:12.816Z,97.35
2017-12-03T21:45:23.429Z,97.35
2017-12-03T21:46:33.814Z,97.45
2017-12-03T21:47:44.110Z,97.45
2017-12-03T21:48:54.485Z,97.26
2017-12-03T21:50:04.582Z,97.26
2017-12-03T21:51:15.095Z,97.54
2017-12-03T21:52:25.452Z,97.26
2017-12-03T21:53:35.811Z,97.26
2017-12-03T21:54:45.780Z,97.26
2017-12-03T21:55:56.170Z,97.26
2017-12-03T21:57:06.491Z,97.73
2017-12-03T21:58:16.904Z,97.64
2017-12-03T21:59:26.973Z,97.73
2017-12-03T22:00:37.273Z,97.73
2017-12-03T22:01:47.344Z,97.64
2017-12-03T22:02:57.742Z,97.54
2017-12-03T22:04:08.083Z,97.73
2017-12-03T22:05:18.454Z,97.45
2017-12-03T22:06:28.823Z,97.54
2017-12-03T22:07:39.289Z,96.78
2017-12-03T22:08:49.819Z,97.16
2017-12-03T22:10:00.161Z,97.54
2017-12-03T22:11:10.203Z,97.73
2017-12-03T22:12:20.646Z,97.73
2017-12-03T22:13:30.438Z,97.54
2017-12-03T22:14:40.805Z,97.16
2017-12-03T22:15:51.167Z,97.26
2017-12-03T22:17:01.508Z,97.26
2017-12-03T22:18:11.831Z,97.45
2017-12-03T22:19:22.208Z,97.35
2017-12-03T22:20:32.671Z,97.16
2017-12-03T22:21:42.948Z,97.45
2017-12-03T22:22:53.248Z,97.45
2017-12-03T22:24:03.572Z,97.26
2017-12-03T22:25:14.084Z,97.26
2017-12-03T22:26:24.422Z,97.45
2017-12-03T22:28:06.332Z,97.26
2017-12-03T22:29:16.802Z,97.26
2017-12-03T22:30:26.925Z,97.16
2017-12-03T22:31:37.249Z,97.73
2017-12-03T22:32:47.574Z,97.64
2017-12-03T22:33:57.886Z,97.73
2017-12-03T22:35:08.204Z,97.73
2017-12-03T22:36:18.640Z,97.54
2017-12-03T22:37:28.839Z,97.64
2017-12-03T22:38:39.162Z,97.16
2017-12-03T22:39:49.500Z,97.16
2017-12-03T22:40:59.868Z,96.78
2017-12-03T22:42:10.227Z,96.78
2017-12-03T22:43:20.070Z,96.88
2017-12-03T22:44:30.417Z,97.07
2017-12-03T22:45:40.746Z,97.07
2017-12-03T22:46:51.497Z,97.45
2017-12-03T22:48:01.867Z,97.45
2017-12-03T22:49:12.213Z,97.35
2017-12-03T22:50:22.238Z,97.54
2017-12-03T22:51:32.383Z,97.54
2017-12-03T22:52:42.692Z,97.64
2017-12-03T22:53:53.067Z,97.64
2017-12-03T22:55:03.570Z,97.26
2017-12-03T22:56:13.625Z,97.54
2017-12-03T22:57:24.017Z,97.35
2017-12-03T22:58:33.963Z,97.16
2017-12-03T22:59:44.093Z,97.45
2017-12-03T23:00:54.383Z,97.35
2017-12-03T23:02:04.693Z,97.16
2017-12-03T23:03:15.097Z,97.35
2017-12-03T23:04:25.439Z,97.26
2017-12-03T23:05:35.776Z,97.07
2017-12-03T23:06:46.056Z,97.45
2017-12-03T23:07:55.965Z,97.45
2017-12-03T23:09:06.289Z,97.54
2017-12-03T23:10:16.343Z,97.54
2017-12-03T23:11:26.652Z,97.45
2017-12-03T23:12:36.988Z,97.45
2017-12-03T23:13:47.228Z,97.26
2017-12-03T23:14:57.573Z,97.45
2017-12-03T23:16:07.473Z,97.73